Time;durP1;ratioP1;P1;durP2;ratioP2;P2;SDS_P1;SDS_P2;PMS_P1;PMS_P2;Temp;Humidity;BMP_temperature;BMP_pressure;BME280_temperature;BME280_humidity;BME280_pressure;Samples;Min_cycle;Max_cycle;Signal;HPM_P1;HPM_P2
2022/06/08 00:01:50;;;;;;;14.00;4.10;;;;;;;21.18;30.01;99129.22;4992029;28;20097;-70
2022/06/08 00:04:22;;;;;;;10.63;3.88;;;;;;;21.19;29.87;99120.03;4992193;28;20471;-70
2022/06/08 00:06:49;;;;;;;13.48;4.35;;;;;;;21.01;29.98;99107.53;5008112;28;20460;-70
2022/06/08 00:09:15;;;;;;;17.90;3.97;;;;;;;21.05;30.05;99118.69;4975745;28;20046;-70
2022/06/08 00:11:41;;;;;;;7.32;3.50;;;;;;;21.08;30.10;99116.31;4975754;28;20472;-70
2022/06/08 00:14:07;;;;;;;12.68;3.80;;;;;;;21.14;29.98;99123.47;4958596;28;20046;-71
2022/06/08 00:16:33;;;;;;;20.65;4.13;;;;;;;21.22;29.77;99128.50;4974943;28;20081;-70
2022/06/08 00:18:58;;;;;;;8.32;3.35;;;;;;;21.27;29.68;99125.09;4989745;28;20053;-70
2022/06/08 00:21:24;;;;;;;11.07;3.53;;;;;;;21.38;29.32;99124.25;5005504;28;20042;-69
2022/06/08 00:23:50;;;;;;;8.98;4.15;;;;;;;21.33;29.06;99126.81;4972665;28;20579;-71
2022/06/08 00:26:16;;;;;;;15.93;3.20;;;;;;;21.35;29.06;99120.16;4972828;28;20054;-73
2022/06/08 00:28:42;;;;;;;13.05;2.83;;;;;;;21.40;29.10;99125.63;4972865;28;20049;-71
2022/06/08 00:31:09;;;;;;;14.52;3.33;;;;;;;21.46;28.71;99126.56;4972690;28;20046;-71
2022/06/08 00:33:38;;;;;;;12.27;3.08;;;;;;;21.57;28.56;99134.63;4959094;28;20046;-69
2022/06/08 00:36:04;;;;;;;8.38;3.22;;;;;;;21.55;28.66;99125.94;4991141;28;20096;-71
2022/06/08 00:38:30;;;;;;;10.77;3.30;;;;;;;21.60;28.53;99133.34;4990890;28;20046;-71
2022/06/08 00:41:02;;;;;;;18.20;3.92;;;;;;;21.81;28.41;99123.75;4974720;28;20042;-68
2022/06/08 00:43:28;;;;;;;11.70;3.35;;;;;;;21.51;28.47;99111.25;4958800;28;20100;-69
2022/06/08 00:45:54;;;;;;;9.90;3.47;;;;;;;21.76;28.23;99129.06;4990479;28;20050;-69
2022/06/08 00:48:22;;;;;;;8.30;3.10;;;;;;;21.83;27.99;99118.91;4990654;28;20499;-70
2022/06/08 00:50:51;;;;;;;13.95;3.22;;;;;;;21.88;28.11;99116.31;5007371;28;20074;-70
2022/06/08 00:53:21;;;;;;;7.07;3.33;;;;;;;21.90;27.93;99117.69;5007159;28;20132;-70
2022/06/08 00:55:47;;;;;;;9.05;2.92;;;;;;;21.77;27.95;99122.59;5007153;28;20188;-70
2022/06/08 00:58:32;;;;;;;13.15;3.25;;;;;;;21.94;27.63;99099.91;4974781;28;20503;-70
2022/06/08 01:01:00;;;;;;;20.83;3.35;;;;;;;21.87;27.74;99118.19;5007018;28;20042;-70
2022/06/08 01:03:27;;;;;;;19.70;3.15;;;;;;;21.86;28.04;99104.91;4990889;28;20412;-70
2022/06/08 01:06:04;;;;;;;7.63;2.97;;;;;;;22.03;27.63;99117.41;4974951;28;20133;-70
2022/06/08 01:08:40;;;;;;;9.43;3.45;;;;;;;22.06;27.36;99106.09;4958499;28;20042;-70
2022/06/08 01:11:13;;;;;;;8.40;3.22;;;;;;;21.85;27.88;99085.16;4990075;28;20054;-70
2022/06/08 01:13:39;;;;;;;22.08;3.63;;;;;;;21.82;27.71;99101.88;5006468;28;20050;-70
2022/06/08 01:16:11;;;;;;;8.85;3.45;;;;;;;22.06;27.72;99113.38;4990480;28;20401;-69
2022/06/08 01:18:39;;;;;;;9.27;3.53;;;;;;;22.13;27.77;99122.97;4990453;28;20472;-70
2022/06/08 01:21:20;;;;;;;14.10;3.72;;;;;;;22.16;27.64;99095.44;4990174;28;20412;-71
2022/06/08 01:23:55;;;;;;;10.68;3.17;;;;;;;22.25;27.54;99114.81;4958427;28;20181;-71
2022/06/08 01:26:24;;;;;;;7.38;3.50;;;;;;;22.04;28.01;99118.22;4990261;28;20042;-71
2022/06/08 01:29:31;;;;;;;13.02;3.80;;;;;;;22.04;28.16;99124.44;4990292;28;20087;-68
2022/06/08 01:32:28;;;;;;;11.23;3.67;;;;;;;22.21;28.02;99117.16;4953329;28;20071;-69
2022/06/08 01:35:17;;;;;;;14.55;4.68;;;;;;;21.55;29.45;99044.88;4953905;28;20058;-69
2022/06/08 01:38:21;;;;;;;13.90;4.35;;;;;;;22.02;29.26;99123.88;4951650;28;20409;-68
2022/06/08 01:41:25;;;;;;;12.00;4.22;;;;;;;22.02;28.57;99131.19;4953723;28;20108;-68
2022/06/08 01:44:03;;;;;;;15.63;3.88;;;;;;;21.83;28.65;99127.03;4953552;28;20105;-68
2022/06/08 01:46:34;;;;;;;12.57;3.75;;;;;;;21.76;28.85;99129.88;4966049;28;20046;-68
2022/06/08 01:49:06;;;;;;;13.00;3.63;;;;;;;21.82;28.63;99142.41;4973892;28;20081;-68
2022/06/08 01:52:14;;;;;;;8.00;3.35;;;;;;;21.62;28.65;99137.44;4957484;28;20500;-68
2022/06/08 01:55:05;;;;;;;8.30;3.30;;;;;;;21.67;28.97;99137.53;4960416;28;20050;-68
2022/06/08 01:57:50;;;;;;;7.35;3.70;;;;;;;21.64;28.96;99139.88;5005712;28;20046;-68
2022/06/08 02:00:30;;;;;;;17.00;3.28;;;;;;;21.36;28.98;99112.84;4957623;28;20062;-68
2022/06/08 02:03:25;;;;;;;9.40;3.35;;;;;;;21.65;29.09;99142.34;4989360;28;20060;-68
2022/06/08 02:05:54;;;;;;;7.32;3.40;;;;;;;21.44;29.20;99151.13;5005906;28;20521;-69
2022/06/08 02:08:30;;;;;;;14.68;3.60;;;;;;;21.42;29.46;99142.44;4973410;28;20137;-72
2022/06/08 02:11:17;;;;;;;14.32;3.58;;;;;;;21.71;29.27;99137.88;4973948;28;20050;-69
2022/06/08 02:13:54;;;;;;;10.45;3.65;;;;;;;21.67;29.38;99142.09;4974209;28;20050;-70
2022/06/08 02:16:43;;;;;;;8.18;2.95;;;;;;;21.61;29.53;99143.91;5005900;28;20046;-72
2022/06/08 02:19:13;;;;;;;11.40;4.13;;;;;;;21.59;29.84;99145.19;4973193;28;20100;-71
2022/06/08 02:21:44;;;;;;;7.25;3.30;;;;;;;21.52;30.24;99136.41;4956918;28;20042;-71
2022/06/08 02:24:15;;;;;;;12.32;3.60;;;;;;;21.53;30.27;99141.56;4993457;28;20411;-70
2022/06/08 02:26:44;;;;;;;6.80;3.33;;;;;;;21.60;30.04;99141.44;4977212;28;20056;-71
2022/06/08 02:29:14;;;;;;;6.20;3.42;;;;;;;21.71;30.27;99135.97;5009856;28;20339;-70
2022/06/08 02:31:48;;;;;;;12.77;3.67;;;;;;;21.53;30.43;99132.63;4993375;28;20050;-70
2022/06/08 02:34:28;;;;;;;8.95;3.80;;;;;;;21.74;30.36;99140.09;4961133;28;20056;-71
2022/06/08 02:36:55;;;;;;;;;;;;;;;21.81;29.90;99148.91;4993544;28;20050;-71
2022/06/08 02:39:33;;;;;;;14.13;4.00;;;;;;;21.70;29.98;99150.56;4993793;28;19922;-70
2022/06/08 02:42:15;;;;;;;12.30;3.85;;;;;;;21.68;30.10;99141.88;4977157;28;20042;-69
2022/06/08 02:44:44;;;;;;;8.98;3.90;;;;;;;21.67;30.28;99156.44;4993580;28;20946;-70
2022/06/08 02:47:31;;;;;;;8.95;3.53;;;;;;;21.74;30.11;99150.91;4977072;28;20038;-69
2022/06/08 02:50:18;;;;;;;7.82;3.17;;;;;;;21.73;30.12;99153.84;5009033;28;20051;-72
2022/06/08 02:52:48;;;;;;;11.07;3.50;;;;;;;21.65;30.23;99150.47;4976728;28;20046;-71
2022/06/08 02:55:33;;;;;;;8.27;3.63;;;;;;;21.70;30.51;99144.31;4976964;28;20042;-72
2022/06/08 02:58:16;;;;;;;13.77;3.55;;;;;;;21.77;30.04;99158.56;4993279;28;20587;-71
2022/06/08 03:00:53;;;;;;;9.75;3.70;;;;;;;21.80;29.92;99163.50;4977457;28;20366;-71
2022/06/08 03:03:32;;;;;;;10.93;3.65;;;;;;;21.82;30.21;99153.22;4977599;28;20057;-71
2022/06/08 03:06:05;;;;;;;14.02;5.40;;;;;;;21.83;30.34;99149.50;4993049;28;20046;-71
2022/06/08 03:08:42;;;;;;;8.05;4.30;;;;;;;21.88;30.28;99154.97;5008936;28;20143;-72
2022/06/08 03:11:11;;;;;;;8.05;3.42;;;;;;;21.71;30.38;99159.50;5008376;28;20506;-72
2022/06/08 03:13:41;;;;;;;11.77;3.95;;;;;;;21.84;30.41;99150.28;4992314;28;20042;-72
2022/06/08 03:16:09;;;;;;;8.02;3.85;;;;;;;21.84;30.39;99150.28;4976620;28;20504;-71
2022/06/08 03:18:35;;;;;;;9.85;4.15;;;;;;;21.84;31.05;99151.13;4976281;28;20409;-71
2022/06/08 03:21:03;;;;;;;11.35;4.47;;;;;;;21.99;32.04;99153.31;4992864;28;20046;-70
2022/06/08 03:23:32;;;;;;;9.32;4.00;;;;;;;21.87;31.90;99153.34;4976458;28;20049;-71
2022/06/08 03:25:59;;;;;;;15.00;4.70;;;;;;;22.00;32.40;99163.03;4976264;28;20049;-71
2022/06/08 03:28:26;;;;;;;11.43;4.32;;;;;;;21.98;32.51;99157.03;4992349;28;20518;-72
2022/06/08 03:30:56;;;;;;;20.27;4.43;;;;;;;22.13;32.95;99163.56;5001041;28;20191;-70
2022/06/08 03:33:24;;;;;;;16.08;4.50;;;;;;;21.99;32.79;99162.22;4984572;28;20034;-72
2022/06/08 03:35:51;;;;;;;9.68;4.13;;;;;;;22.10;32.10;99160.50;5019117;28;20041;-71
2022/06/08 03:38:20;;;;;;;16.73;4.72;;;;;;;22.12;32.53;99164.63;4995763;28;20052;-70
2022/06/08 03:40:51;;;;;;;21.83;4.55;;;;;;;22.19;32.20;99167.19;4992811;28;20037;-72
2022/06/08 03:43:17;;;;;;;12.10;3.83;;;;;;;22.24;31.60;99170.78;4970564;28;20045;-70
2022/06/08 03:45:45;;;;;;;11.48;4.32;;;;;;;22.45;31.67;99167.34;5007113;28;20051;-70
2022/06/08 03:48:12;;;;;;;11.48;4.28;;;;;;;22.21;31.95;99152.34;4997058;28;20095;-70
2022/06/08 03:50:41;;;;;;;14.93;3.97;;;;;;;22.49;31.87;99167.69;5012956;28;20041;-70
2022/06/08 03:53:13;;;;;;;9.55;3.50;;;;;;;22.55;32.02;99172.16;4979749;28;20156;-69
2022/06/08 03:55:39;;;;;;;10.13;4.85;;;;;;;22.42;32.48;99167.84;5013298;28;20045;-69
2022/06/08 03:58:06;;;;;;;10.38;4.35;;;;;;;22.39;33.23;99143.97;5029796;28;20098;-69
2022/06/08 04:00:36;;;;;;;;;;;;;;;22.83;33.59;99172.84;4966172;28;20498;-69
2022/06/08 04:03:09;;;;;;;11.70;4.68;;;;;;;22.71;33.39;99177.56;4975024;28;19925;-70
2022/06/08 04:05:37;;;;;;;11.63;4.80;;;;;;;22.74;33.65;99171.63;4977012;28;20468;-68
2022/06/08 04:08:09;;;;;;;18.13;5.15;;;;;;;22.72;33.26;99179.22;4978228;28;20033;-67
2022/06/08 04:10:42;;;;;;;13.10;5.30;;;;;;;22.70;33.02;99181.34;4980435;28;20502;-73
2022/06/08 04:13:12;;;;;;;10.18;4.75;;;;;;;22.96;32.67;99186.06;5018678;28;20533;-73
2022/06/08 04:15:43;;;;;;;12.38;4.32;;;;;;;22.75;32.91;99167.88;4992894;28;20036;-73
2022/06/08 04:18:21;;;;;;;12.43;4.90;;;;;;;23.22;32.14;99185.34;5016206;28;20060;-71
2022/06/08 04:20:53;;;;;;;16.38;6.38;;;;;;;23.07;32.73;99166.19;5016995;28;20187;-72
2022/06/08 04:23:22;;;;;;;17.83;6.77;;;;;;;23.36;32.74;99188.56;5023371;28;20045;-72
2022/06/08 04:25:52;;;;;;;18.87;6.40;;;;;;;23.40;32.41;99183.47;4996578;28;20502;-72
2022/06/08 04:28:18;;;;;;;15.77;5.50;;;;;;;23.46;32.60;99183.28;5029098;28;20520;-72
2022/06/08 04:30:48;;;;;;;16.07;4.77;;;;;;;23.50;32.13;99164.59;5013552;28;20418;-72
2022/06/08 04:33:14;;;;;;;13.25;4.15;;;;;;;23.62;32.02;99168.81;4996515;28;20045;-72
2022/06/08 04:35:40;;;;;;;11.63;4.13;;;;;;;23.75;31.55;99170.31;4985119;28;20037;-72
2022/06/08 04:38:07;;;;;;;11.63;4.47;;;;;;;23.91;31.78;99180.28;5010824;28;20041;-72
2022/06/08 04:40:36;;;;;;;19.75;4.20;;;;;;;23.95;31.79;99181.41;4994220;28;20168;-72
2022/06/08 04:43:02;;;;;;;14.30;4.00;;;;;;;24.02;31.96;99169.31;4977468;28;20526;-72
2022/06/08 04:45:27;;;;;;;14.25;3.90;;;;;;;24.12;31.36;99177.56;4976981;28;20522;-72
2022/06/08 04:47:53;;;;;;;11.68;3.70;;;;;;;24.24;31.24;99175.50;5010722;28;20056;-72
2022/06/08 04:50:19;;;;;;;11.63;3.53;;;;;;;24.39;30.97;99166.66;4994229;28;20053;-72
2022/06/08 04:52:48;;;;;;;11.25;3.03;;;;;;;24.51;30.81;99175.44;5010929;28;20041;-72
2022/06/08 04:55:15;;;;;;;8.73;2.30;;;;;;;24.66;28.57;99184.56;4996454;28;20228;-72
2022/06/08 04:57:43;;;;;;;15.65;2.72;;;;;;;24.70;27.39;99174.84;5012619;28;20057;-72
2022/06/08 05:00:13;;;;;;;13.35;3.00;;;;;;;25.02;27.33;99182.94;4995622;28;20049;-72
2022/06/08 05:02:44;;;;;;;16.90;4.00;;;;;;;25.07;27.03;99172.09;4995497;28;20043;-72
2022/06/08 05:05:42;;;;;;;12.70;3.72;;;;;;;25.50;26.26;99162.84;4998368;28;20146;-72
2022/06/08 05:08:18;;;;;;;12.77;4.35;;;;;;;25.44;26.33;99172.88;5011821;28;20049;-72
2022/06/08 05:10:49;;;;;;;17.00;4.20;;;;;;;25.39;25.96;99137.50;4980304;28;20041;-72
2022/06/08 05:13:18;;;;;;;12.75;3.75;;;;;;;25.76;25.89;99179.00;5011747;28;20148;-72
2022/06/08 05:15:50;;;;;;;16.38;4.10;;;;;;;25.87;25.57;99175.22;5013331;28;20041;-72
2022/06/08 05:18:22;;;;;;;19.15;4.88;;;;;;;25.99;25.63;99184.00;4996682;28;20053;-72
2022/06/08 05:20:50;;;;;;;16.23;4.20;;;;;;;26.01;25.42;99179.09;5028581;28;20784;-72
2022/06/08 05:23:33;;;;;;;17.65;4.00;;;;;;;26.13;24.96;99146.16;4996231;28;20048;-73
2022/06/08 05:26:02;;;;;;;19.60;3.72;;;;;;;26.25;25.64;99184.84;5027954;28;20404;-73
2022/06/08 05:28:29;;;;;;;17.92;4.43;;;;;;;26.33;25.09;99179.69;4995281;28;20052;-73
2022/06/08 05:30:58;;;;;;;14.07;4.30;;;;;;;26.12;25.71;99161.69;4996671;28;20056;-73
2022/06/08 05:33:29;;;;;;;18.77;4.50;;;;;;;26.30;25.07;99185.69;4995843;28;20049;-74
2022/06/08 05:35:59;;;;;;;23.52;4.55;;;;;;;26.39;24.69;99184.06;4996695;28;20053;-73
2022/06/08 05:38:27;;;;;;;20.60;4.03;;;;;;;26.46;24.42;99181.06;4995554;28;20139;-73
2022/06/08 05:40:55;;;;;;;12.45;4.55;;;;;;;26.45;24.26;99171.25;5011922;28;20124;-73
2022/06/08 05:43:22;;;;;;;12.32;4.30;;;;;;;26.57;24.04;99173.72;5011805;28;20059;-72
2022/06/08 05:45:52;;;;;;;11.43;3.67;;;;;;;26.54;24.33;99163.38;4979483;28;20136;-72
2022/06/08 05:48:19;;;;;;;17.55;4.18;;;;;;;26.81;23.82;99189.28;5011298;28;20122;-73
2022/06/08 05:50:47;;;;;;;15.52;3.00;;;;;;;26.86;22.87;99192.00;5011492;28;20053;-73
2022/06/08 05:53:16;;;;;;;11.18;3.40;;;;;;;27.00;23.25;99186.78;5007039;28;20038;-74
2022/06/08 05:55:44;;;;;;;14.90;3.28;;;;;;;27.11;23.39;99193.88;5008732;28;20124;-74
2022/06/08 05:58:14;;;;;;;13.52;3.03;;;;;;;27.16;22.37;99199.28;4991605;28;20050;-73
2022/06/08 06:00:43;;;;;;;13.57;3.25;;;;;;;27.27;22.04;99195.47;4991743;28;20054;-73
2022/06/08 06:03:13;;;;;;;15.63;3.60;;;;;;;27.25;21.97;99201.22;4974850;28;20053;-72
2022/06/08 06:05:40;;;;;;;16.65;3.50;;;;;;;27.44;21.92;99188.63;4976480;28;20038;-72
2022/06/08 06:08:10;;;;;;;;;;;;;;;27.67;21.84;99193.44;5000269;28;20065;-74
2022/06/08 06:10:56;;;;;;;15.73;3.38;;;;;;;27.40;22.47;99193.00;5004729;28;19928;-73
2022/06/08 06:13:32;;;;;;;15.73;3.40;;;;;;;27.52;21.97;99200.88;5000797;28;20041;-71
2022/06/08 06:15:59;;;;;;;13.88;3.33;;;;;;;27.58;21.68;99205.22;4997905;28;20424;-72
2022/06/08 06:18:28;;;;;;;12.18;2.75;;;;;;;27.57;21.51;99187.22;4984015;28;20050;-72
2022/06/08 06:21:00;;;;;;;8.88;2.67;;;;;;;27.73;20.94;99199.69;4991752;28;20045;-72
2022/06/08 06:23:46;;;;;;;6.53;2.42;;;;;;;27.82;20.19;99204.28;5002790;28;20049;-73
2022/06/08 06:26:48;;;;;;;10.15;2.50;;;;;;;27.89;19.93;99202.09;4951664;28;20050;-74
2022/06/08 06:29:20;;;;;;;10.43;2.42;;;;;;;28.03;20.39;99203.13;5009694;28;20049;-73
2022/06/08 06:32:07;;;;;;;7.70;1.88;;;;;;;27.83;20.14;99145.88;5013963;28;20567;-73
2022/06/08 06:34:41;;;;;;;10.52;2.28;;;;;;;28.13;19.68;99207.72;4975982;28;20061;-73
2022/06/08 06:37:06;;;;;;;6.95;2.60;;;;;;;28.18;20.09;99207.69;4989732;28;20139;-74
2022/06/08 06:39:33;;;;;;;20.48;2.30;;;;;;;28.29;19.29;99211.16;4986484;28;20560;-73
2022/06/08 06:42:04;;;;;;;7.30;2.20;;;;;;;28.33;19.05;99204.84;4955052;28;20471;-73
2022/06/08 06:44:36;;;;;;;6.07;3.15;;;;;;;28.36;18.84;99206.19;4983343;28;20054;-73
2022/06/08 06:47:11;;;;;;;6.57;2.20;;;;;;;28.42;18.70;99208.59;5010207;28;20084;-72
2022/06/08 06:49:45;;;;;;;11.13;2.00;;;;;;;28.54;18.70;99208.28;4982287;28;20042;-72
2022/06/08 06:52:12;;;;;;;4.82;1.80;;;;;;;28.62;18.84;99191.28;4986827;28;20101;-72
2022/06/08 06:54:40;;;;;;;5.53;1.83;;;;;;;28.72;18.41;99213.91;4987124;28;20046;-72
2022/06/08 06:57:08;;;;;;;5.82;1.90;;;;;;;28.80;18.59;99210.53;4983999;28;20054;-72
2022/06/08 06:59:35;;;;;;;7.32;1.70;;;;;;;28.92;17.71;99218.38;4971672;28;20077;-71
2022/06/08 07:02:02;;;;;;;8.07;1.77;;;;;;;29.06;17.89;99206.47;4967420;28;20501;-71
2022/06/08 07:04:28;;;;;;;6.47;1.45;;;;;;;29.20;17.24;99214.84;4987093;28;20062;-72
2022/06/08 07:06:57;;;;;;;11.65;1.70;;;;;;;29.24;16.92;99213.97;4974768;28;20038;-71
2022/06/08 07:09:24;;;;;;;5.95;2.10;;;;;;;29.42;17.08;99215.16;4993082;28;20077;-72
2022/06/08 07:11:50;;;;;;;7.22;1.83;;;;;;;29.55;16.88;99207.03;4976931;28;20077;-71
2022/06/08 07:14:20;;;;;;;8.90;1.80;;;;;;;29.89;16.34;99217.09;4990546;28;20073;-73
2022/06/08 07:16:52;;;;;;;7.45;1.73;;;;;;;30.20;16.35;99219.13;4968318;28;20106;-72
2022/06/08 07:19:23;;;;;;;10.25;1.70;;;;;;;30.59;16.74;99216.91;5004343;28;20068;-73
2022/06/08 07:21:49;;;;;;;5.68;1.80;;;;;;;31.03;15.95;99224.69;4959352;28;20057;-73
2022/06/08 07:24:21;;;;;;;7.07;1.65;;;;;;;31.63;14.93;99209.84;4994808;28;20038;-73
2022/06/08 07:26:47;;;;;;;6.20;1.55;;;;;;;32.07;14.96;99217.47;4941354;28;20067;-72
2022/06/08 07:29:13;;;;;;;5.43;1.60;;;;;;;32.76;14.12;99211.47;5004803;28;20045;-73
2022/06/08 07:31:40;;;;;;;11.25;1.80;;;;;;;33.73;13.22;99222.41;4978037;28;20100;-73
2022/06/08 07:34:06;;;;;;;6.10;1.50;;;;;;;34.54;12.55;99224.38;5009597;28;20136;-73
2022/06/08 07:36:34;;;;;;;8.98;2.03;;;;;;;35.59;12.45;99212.53;4960994;28;20136;-73
2022/06/08 07:38:59;;;;;;;8.85;1.60;;;;;;;36.79;10.69;99215.34;5010123;28;20049;-74
2022/06/08 07:41:25;;;;;;;4.90;1.30;;;;;;;38.79;9.09;99221.19;4977498;28;20041;-74
2022/06/08 07:43:51;;;;;;;4.07;1.20;;;;;;;40.59;8.05;99218.22;4992131;28;20074;-73
2022/06/08 07:46:19;;;;;;;8.07;1.58;;;;;;;42.16;7.22;99223.16;4992583;28;20044;-73
2022/06/08 07:51:32;;;;;;;9.40;1.60;;;;;;;45.81;4.82;99219.56;4970662;28;20136;-73
2022/06/08 07:53:59;;;;;;;7.60;1.30;;;;;;;47.10;4.08;99224.00;4991384;28;20415;-73
2022/06/08 07:56:25;;;;;;;6.28;1.58;;;;;;;48.17;4.51;99230.41;5005679;28;20050;-73
2022/06/08 07:58:51;;;;;;;8.98;1.65;;;;;;;48.91;3.24;99219.91;4974653;28;20104;-74
2022/06/08 08:01:17;;;;;;;7.53;1.58;;;;;;;49.82;2.79;99220.56;4991717;28;20408;-73
2022/06/08 08:03:42;;;;;;;6.03;1.40;;;;;;;50.82;2.46;99217.41;4992322;28;20049;-73
2022/06/08 08:06:11;;;;;;;3.80;1.50;;;;;;;51.49;2.25;99219.53;4995663;28;20091;-72
2022/06/08 08:08:38;;;;;;;4.53;1.60;;;;;;;52.02;2.04;99213.34;4973196;28;20042;-73
2022/06/08 08:11:05;;;;;;;16.33;2.03;;;;;;;52.32;1.43;99217.81;4974039;28;20397;-75
2022/06/08 08:13:32;;;;;;;7.65;1.60;;;;;;;52.29;1.80;99216.63;4984072;28;20045;-72
2022/06/08 08:15:58;;;;;;;8.10;1.98;;;;;;;52.72;1.76;99211.34;4972609;28;20050;-72
2022/06/08 08:18:24;;;;;;;4.13;0.90;;;;;;;52.69;1.48;99211.44;4958645;28;20534;-72
2022/06/08 08:20:50;;;;;;;5.72;1.20;;;;;;;53.02;1.38;99212.88;4973367;28;20038;-73
2022/06/08 08:23:16;;;;;;;4.30;1.08;;;;;;;53.52;1.14;99206.41;4941837;28;20046;-72
2022/06/08 08:25:42;;;;;;;7.95;1.40;;;;;;;53.66;0.77;99201.06;5010342;28;20041;-73
2022/06/08 08:28:08;;;;;;;8.48;1.60;;;;;;;53.60;0.89;99197.22;5004214;28;20073;-71
2022/06/08 08:30:34;;;;;;;4.68;1.30;;;;;;;53.70;0.56;99196.06;4973625;28;20488;-73
2022/06/08 08:33:01;;;;;;;6.78;1.02;;;;;;;54.03;0.77;99202.22;4989522;28;20510;-74
2022/06/08 08:35:27;;;;;;;7.78;1.27;;;;;;;54.64;0.23;99202.44;4972322;28;20042;-71
2022/06/08 08:37:55;;;;;;;7.40;1.15;;;;;;;55.22;0.00;99203.38;5001904;28;20046;-73
2022/06/08 08:40:44;;;;;;;4.55;1.20;;;;;;;55.51;0.00;99192.41;5026163;28;20100;-72
2022/06/08 08:43:13;;;;;;;4.38;1.25;;;;;;;55.47;0.11;99196.69;4976257;28;20057;-73
2022/06/08 08:45:53;;;;;;;3.40;1.10;;;;;;;55.61;0.01;99191.16;4987170;28;20136;-74
2022/06/08 08:48:31;;;;;;;8.73;1.80;;;;;;;56.26;0.00;99197.25;4976270;28;20048;-73
2022/06/08 08:51:34;;;;;;;3.25;1.08;;;;;;;56.84;0.00;99202.72;4992815;28;20037;-74
2022/06/08 08:54:28;;;;;;;5.57;1.23;;;;;;;57.15;0.00;99193.91;4976350;28;20061;-73
2022/06/08 08:57:00;;;;;;;5.78;2.00;;;;;;;57.43;0.00;99186.78;4967013;28;20046;-74
2022/06/08 08:59:33;;;;;;;4.68;1.10;;;;;;;57.66;0.00;99186.81;4973124;28;20758;-73
2022/06/08 09:01:59;;;;;;;3.45;1.00;;;;;;;57.35;0.00;99179.84;4956895;28;20053;-75
2022/06/08 09:04:34;;;;;;;5.07;1.23;;;;;;;57.59;0.00;99177.84;4996627;28;20132;-73
2022/06/08 09:07:17;;;;;;;9.52;1.50;;;;;;;58.00;0.00;99179.75;4963885;28;20042;-74
2022/06/08 09:09:43;;;;;;;8.13;1.27;;;;;;;57.70;0.00;99175.22;4988234;28;20069;-73
2022/06/08 09:12:19;;;;;;;6.50;1.33;;;;;;;58.06;0.00;99166.34;4955317;28;20411;-75
2022/06/08 09:14:59;;;;;;;10.98;1.55;;;;;;;58.20;0.00;99173.38;5007997;28;20425;-74
2022/06/08 09:17:38;;;;;;;6.15;1.08;;;;;;;57.92;0.00;99169.19;4991661;28;20521;-72
2022/06/08 09:20:23;;;;;;;4.50;1.52;;;;;;;57.22;0.00;99162.13;4991581;28;20048;-74
2022/06/08 09:22:52;;;;;;;3.50;1.30;;;;;;;57.22;0.00;99148.66;4991421;28;20046;-73
2022/06/08 09:25:30;;;;;;;3.90;1.45;;;;;;;57.52;0.00;99152.44;4993383;28;20049;-72
2022/06/08 09:27:57;;;;;;;7.65;1.30;;;;;;;57.81;0.00;99155.41;5015660;28;20045;-74
2022/06/08 09:30:24;;;;;;;5.72;1.45;;;;;;;58.00;0.00;99158.94;5013600;28;20030;-74
2022/06/08 09:33:13;;;;;;;3.28;1.50;;;;;;;57.47;0.00;99155.97;4983877;28;20037;-74
2022/06/08 09:35:53;;;;;;;5.97;1.40;;;;;;;57.56;0.00;99159.56;5017532;28;20517;-75
2022/06/08 09:38:22;;;;;;;8.40;1.30;;;;;;;57.55;0.00;99149.44;5018229;28;20574;-77
2022/06/08 09:40:54;;;;;;;5.47;1.20;;;;;;;57.88;0.00;99157.13;5015369;28;20072;-76
2022/06/08 09:43:52;;;;;;;6.40;1.30;;;;;;;57.96;0.00;99146.91;4993897;28;20049;-76
2022/06/08 09:52:37;;;;;;;3.85;1.15;;;;;;;58.52;0.00;99147.47;4986768;28;20061;-75
2022/06/08 09:55:04;;;;;;;8.00;1.20;;;;;;;58.65;0.00;99150.84;4991789;28;20112;-75
2022/06/08 09:57:36;;;;;;;6.45;1.30;;;;;;;58.85;0.00;99141.53;4993990;28;20057;-75
2022/06/08 10:00:27;;;;;;;8.32;1.30;;;;;;;58.82;0.00;99146.16;4978558;28;20400;-74
2022/06/08 10:03:17;;;;;;;8.85;1.30;;;;;;;58.66;0.00;99137.28;4974065;28;20104;-74
2022/06/08 10:06:07;;;;;;;7.60;1.33;;;;;;;58.25;0.00;99130.59;4987451;28;20046;-74
2022/06/08 10:08:51;;;;;;;11.43;1.08;;;;;;;57.93;0.00;99131.53;4986953;28;20092;-76
2022/06/08 10:11:34;;;;;;;4.72;1.50;;;;;;;57.88;0.00;99129.34;4974600;28;20144;-74
2022/06/08 10:14:21;;;;;;;6.43;1.08;;;;;;;58.14;0.00;99133.25;5002682;28;20053;-74
2022/06/08 10:16:58;;;;;;;10.40;1.40;;;;;;;58.05;0.00;99132.50;4956633;28;20112;-76
2022/06/08 10:19:45;;;;;;;6.93;1.77;;;;;;;57.96;0.00;99132.59;4956289;28;20140;-75
2022/06/08 10:22:12;;;;;;;5.07;1.30;;;;;;;57.86;0.00;99133.94;4962843;28;20592;-76
2022/06/08 10:24:49;;;;;;;5.15;1.30;;;;;;;57.72;0.00;99132.59;4986945;28;20184;-75
2022/06/08 10:27:21;;;;;;;4.70;1.25;;;;;;;57.85;0.00;99112.38;4970756;28;20195;-74
2022/06/08 10:29:57;;;;;;;6.80;1.10;;;;;;;57.59;0.00;99118.56;4971390;28;20053;-74
2022/06/08 10:32:29;;;;;;;4.97;1.20;;;;;;;57.10;0.00;99106.81;4971750;28;20050;-75
2022/06/08 10:34:55;;;;;;;5.82;1.50;;;;;;;56.49;0.00;99106.56;4987409;28;20069;-74
2022/06/08 10:37:38;;;;;;;5.60;1.55;;;;;;;56.45;0.00;99108.81;4999492;28;20487;-73
2022/06/08 10:40:09;;;;;;;4.65;1.25;;;;;;;56.01;0.00;99108.34;4971554;28;20129;-75
2022/06/08 10:42:40;;;;;;;9.90;1.30;;;;;;;55.58;0.00;99103.75;4976966;28;20042;-74
2022/06/08 10:45:26;;;;;;;7.75;1.40;;;;;;;54.50;0.21;99101.28;4985731;28;20097;-74
2022/06/08 10:47:54;;;;;;;7.88;1.38;;;;;;;53.82;0.41;99097.81;5000042;28;20450;-74
2022/06/08 10:50:32;;;;;;;9.03;5.47;;;;;;;53.44;0.35;99095.06;4992712;28;20141;-74
2022/06/08 10:55:48;;;;;;;5.07;1.40;;;;;;;52.02;1.06;99082.16;4977303;28;20054;-76
2022/06/08 10:58:17;;;;;;;9.98;1.55;;;;;;;52.15;1.14;99097.94;4955942;28;20107;-74
2022/06/08 11:00:51;;;;;;;9.43;1.50;;;;;;;52.33;0.76;99089.75;4997089;28;20058;-74
2022/06/08 11:03:43;;;;;;;6.72;1.40;;;;;;;51.81;1.29;99077.84;4981783;28;20038;-72
2022/06/08 11:06:13;;;;;;;6.15;1.20;;;;;;;50.70;1.62;99083.13;4988603;28;20056;-76
2022/06/08 11:08:55;;;;;;;7.53;1.40;;;;;;;49.39;1.73;99069.22;4976619;28;20079;-73
2022/06/08 11:11:42;;;;;;;4.18;1.30;;;;;;;47.90;2.46;99071.75;4993002;28;20048;-73
2022/06/08 11:14:43;;;;;;;12.15;1.40;;;;;;;46.24;2.41;99089.09;4978159;28;20046;-74
2022/06/08 11:17:32;;;;;;;5.53;1.30;;;;;;;44.54;3.50;99073.53;4958240;28;20049;-73
2022/06/08 11:20:18;;;;;;;7.72;1.20;;;;;;;42.61;4.51;99079.72;5009465;28;20583;-74
2022/06/08 11:22:51;;;;;;;6.13;1.40;;;;;;;40.96;4.80;99058.63;4959999;28;20055;-74
2022/06/08 11:25:23;;;;;;;5.75;2.10;;;;;;;40.05;5.16;99065.97;5007079;28;20556;-74
2022/06/08 11:28:43;;;;;;;9.98;1.63;;;;;;;40.16;5.45;99057.84;5002953;28;20104;-76
2022/06/08 11:31:11;;;;;;;;;;;;;;;40.04;5.81;99075.47;5012870;28;20057;-76
2022/06/08 11:34:08;;;;;;;9.52;1.67;;;;;;;39.53;5.56;99060.03;4987342;28;19926;-75
2022/06/08 11:36:47;;;;;;;6.50;1.63;;;;;;;39.30;5.94;99050.72;4990684;28;20073;-77
2022/06/08 11:39:45;;;;;;;4.68;1.60;;;;;;;39.46;5.72;99065.41;5002229;28;20120;-78
2022/06/08 11:42:24;;;;;;;6.45;1.80;;;;;;;39.25;5.82;99062.13;4964112;28;20050;-75
2022/06/08 11:45:12;;;;;;;7.43;2.10;;;;;;;38.97;6.08;99052.22;4957706;28;20053;-76
2022/06/08 11:47:49;;;;;;;12.10;2.35;;;;;;;38.56;6.46;99057.16;4974304;28;20065;-76
2022/06/08 11:50:24;;;;;;;5.90;1.88;;;;;;;38.40;6.92;99070.16;4978861;28;20256;-76
2022/06/08 11:53:05;;;;;;;5.47;1.70;;;;;;;38.23;6.70;99069.66;4959301;28;20566;-76
2022/06/08 11:55:37;;;;;;;7.97;4.45;;;;;;;38.02;6.92;99055.97;5008321;28;20133;-75
2022/06/08 11:58:06;;;;;;;4.30;1.40;;;;;;;37.71;7.11;99072.47;4993843;28;20057;-77
2022/06/08 12:00:51;;;;;;;5.88;1.40;;;;;;;37.18;8.03;99079.03;4986512;28;20061;-76
2022/06/08 12:03:16;;;;;;;4.75;1.38;;;;;;;36.22;8.24;99070.47;4998713;28;20052;-75
2022/06/08 12:05:48;;;;;;;2.70;1.30;;;;;;;35.76;8.48;99062.38;5006638;28;20050;-75
2022/06/08 12:08:33;;;;;;;6.00;1.58;;;;;;;35.50;8.26;99054.28;4974846;28;20053;-75
2022/06/08 12:11:00;;;;;;;10.30;1.58;;;;;;;34.98;8.52;99061.19;4989796;28;20046;-74
2022/06/08 12:13:26;;;;;;;8.02;1.60;;;;;;;34.88;9.29;99057.97;4988876;28;20057;-75
2022/06/08 12:15:53;;;;;;;8.50;4.80;;;;;;;34.81;9.44;99054.91;5006601;28;20046;-74